createdAt,value
2022-08-29T00:00:50.556Z,77063.63
2022-08-29T00:03:18.365Z,77075.53
2022-08-29T00:05:50.047Z,77077.53
2022-08-29T00:08:17.751Z,77079.50
2022-08-29T00:10:44.516Z,77085.47
2022-08-29T00:13:12.256Z,77089.44
2022-08-29T00:15:47.481Z,77083.50
2022-08-29T00:18:15.944Z,77091.44
2022-08-29T00:20:43.842Z,77097.41
2022-08-29T00:23:11.186Z,77099.38
2022-08-29T00:25:38.027Z,77109.31
2022-08-29T00:28:05.449Z,77113.31
2022-08-29T00:30:33.120Z,77109.31
2022-08-29T00:33:00.900Z,77121.25
2022-08-29T00:35:32.321Z,77117.28
2022-08-29T00:38:00.068Z,77109.31
2022-08-29T00:40:31.120Z,77103.38
2022-08-29T00:42:58.499Z,77113.31
2022-08-29T00:45:25.318Z,77117.28
2022-08-29T00:48:11.758Z,77109.31
2022-08-29T00:50:47.983Z,77127.22
2022-08-29T00:53:17.191Z,77131.19
2022-08-29T00:55:50.403Z,77123.25
2022-08-29T00:58:35.260Z,77127.22
2022-08-29T01:01:02.151Z,77143.13
2022-08-29T01:03:33.148Z,77141.13
2022-08-29T01:06:01.011Z,77139.13
2022-08-29T01:08:27.812Z,77151.06
2022-08-29T01:11:13.978Z,77147.09
2022-08-29T01:13:44.105Z,77164.97
2022-08-29T01:16:13.577Z,77153.06
2022-08-29T01:18:44.146Z,77166.97
2022-08-29T01:21:20.176Z,77163.00
2022-08-29T01:23:59.366Z,77159.00
2022-08-29T01:26:29.124Z,77157.03
2022-08-29T01:28:56.412Z,77151.06
2022-08-29T01:31:55.483Z,77178.88
2022-08-29T01:34:19.207Z,77178.88
2022-08-29T01:36:52.021Z,77178.88
2022-08-29T01:39:22.138Z,77184.84
2022-08-29T01:41:50.213Z,77182.88
2022-08-29T01:44:19.899Z,77188.81
2022-08-29T01:46:49.599Z,77196.78
2022-08-29T01:49:17.786Z,77190.81
2022-08-29T01:51:44.615Z,77200.75
2022-08-29T01:54:12.396Z,77210.69
2022-08-29T01:56:55.940Z,77210.69
2022-08-29T01:59:29.751Z,77214.66
2022-08-29T02:02:03.214Z,77200.75
2022-08-29T02:04:29.955Z,77192.81
2022-08-29T02:07:12.878Z,77196.78
2022-08-29T02:09:45.475Z,77198.75
2022-08-29T02:12:14.193Z,77200.75
2022-08-29T02:14:41.664Z,77204.72
2022-08-29T02:17:08.479Z,77194.78
2022-08-29T02:19:35.750Z,77198.75
2022-08-29T02:22:02.761Z,77208.69
2022-08-29T02:24:30.236Z,77210.69
2022-08-29T02:26:58.011Z,77220.63
2022-08-29T02:29:36.939Z,77214.66
2022-08-29T02:32:21.740Z,77214.66
2022-08-29T02:34:48.771Z,77214.66
2022-08-29T02:37:16.696Z,77238.50
2022-08-29T02:39:43.361Z,77230.56
2022-08-29T02:42:10.011Z,77234.53
2022-08-29T02:44:38.445Z,77226.59
2022-08-29T02:47:05.272Z,77222.63
2022-08-29T02:49:31.839Z,77238.50
2022-08-29T02:51:59.116Z,77242.50
2022-08-29T02:54:26.435Z,77236.53
2022-08-29T02:56:52.978Z,77232.56
2022-08-29T02:59:19.571Z,77246.47
2022-08-29T03:01:46.255Z,77244.47
2022-08-29T03:04:12.769Z,77244.47
2022-08-29T03:06:39.401Z,77240.50
2022-08-29T03:09:05.950Z,77262.38
2022-08-29T03:11:32.588Z,77254.41
2022-08-29T03:13:59.124Z,77252.44
2022-08-29T03:16:26.601Z,77256.41
2022-08-29T03:18:54.181Z,77262.38
2022-08-29T03:21:25.076Z,77274.28
2022-08-29T03:23:55.544Z,77270.31
2022-08-29T03:26:23.716Z,77266.34
2022-08-29T03:28:50.527Z,77270.31
2022-08-29T03:31:17.121Z,77280.25
2022-08-29T03:33:43.790Z,77282.25
2022-08-29T03:36:14.924Z,77276.28
2022-08-29T03:38:43.638Z,77282.25
2022-08-29T03:43:51.732Z,77290.19
2022-08-29T03:46:18.836Z,77302.13
2022-08-29T03:48:45.441Z,77304.09
2022-08-29T03:51:12.098Z,77300.13
2022-08-29T03:53:38.645Z,77304.09
2022-08-29T03:56:06.175Z,77304.09
2022-08-29T03:58:33.268Z,77316.03
2022-08-29T04:01:00.198Z,77308.09
2022-08-29T04:03:31.469Z,77318.03
2022-08-29T04:06:09.972Z,77318.03
2022-08-29T04:08:51.659Z,77318.03
2022-08-29T04:11:24.143Z,77318.03
2022-08-29T04:13:53.105Z,77314.03
2022-08-29T04:16:23.946Z,77306.09
2022-08-29T04:18:50.760Z,77318.03
2022-08-29T04:23:59.286Z,77310.06
2022-08-29T04:26:37.915Z,77327.97
2022-08-29T04:31:53.019Z,77310.06
2022-08-29T04:34:43.712Z,77320.00
2022-08-29T04:37:28.886Z,77337.91
2022-08-29T04:40:07.221Z,77320.00
2022-08-29T04:42:41.992Z,77320.00
2022-08-29T04:45:14.418Z,77318.03
2022-08-29T04:47:42.291Z,77329.94
2022-08-29T04:50:12.182Z,77323.97
2022-08-29T04:52:39.576Z,77331.94
2022-08-29T04:55:07.268Z,77323.97
2022-08-29T04:57:35.433Z,77323.97
2022-08-29T05:00:02.286Z,77318.03
2022-08-29T05:02:28.833Z,77325.97
2022-08-29T05:04:56.806Z,77312.06
2022-08-29T05:07:25.640Z,77322.00
2022-08-29T05:09:58.788Z,77318.03
2022-08-29T05:12:26.732Z,77306.09
2022-08-29T05:14:53.768Z,77298.13
2022-08-29T05:17:20.913Z,77298.13
2022-08-29T05:19:48.019Z,77302.13
2022-08-29T05:22:15.504Z,77294.16
2022-08-29T05:24:42.795Z,77280.25
2022-08-29T05:27:11.244Z,77288.22
2022-08-29T05:29:42.747Z,77290.19
2022-08-29T05:32:11.292Z,77272.31
2022-08-29T05:34:39.349Z,77274.28
2022-08-29T05:37:12.927Z,77254.41
2022-08-29T05:39:39.998Z,77246.47
2022-08-29T05:42:08.088Z,77246.47
2022-08-29T05:44:36.941Z,77222.63
2022-08-29T05:47:08.221Z,77204.72
2022-08-29T05:49:39.623Z,77198.75
2022-08-29T05:52:07.191Z,77170.94
2022-08-29T05:54:36.735Z,77153.06
2022-08-29T05:57:03.832Z,77147.09
2022-08-29T05:59:30.549Z,77133.19
2022-08-29T06:01:57.167Z,77123.25
2022-08-29T06:04:23.797Z,77111.31
2022-08-29T06:06:50.851Z,77101.38
2022-08-29T06:09:17.427Z,77091.44
2022-08-29T06:11:47.781Z,77087.47
2022-08-29T06:14:15.432Z,77079.50
2022-08-29T06:16:42.604Z,77075.53
2022-08-29T06:19:09.590Z,77073.56
2022-08-29T06:21:38.888Z,77049.69
2022-08-29T06:24:07.005Z,77055.66
2022-08-29T06:26:34.677Z,77053.69
2022-08-29T06:29:06.186Z,77029.81
2022-08-29T06:31:32.831Z,77011.94
2022-08-29T06:34:01.955Z,77004.00
2022-08-29T06:36:30.135Z,76990.06
2022-08-29T06:39:01.546Z,76966.22
2022-08-29T06:41:29.007Z,76960.25
2022-08-29T06:43:56.905Z,76942.38
2022-08-29T06:46:35.894Z,76952.31
2022-08-29T06:49:04.970Z,76950.31
2022-08-29T06:51:33.371Z,76938.41
2022-08-29T06:54:01.681Z,76936.41
2022-08-29T06:56:30.654Z,76902.63
2022-08-29T06:58:57.332Z,76884.75
2022-08-29T07:01:24.633Z,76888.72
2022-08-29T07:03:54.045Z,76886.72
2022-08-29T07:06:20.717Z,76870.84
2022-08-29T07:08:55.610Z,76852.94
2022-08-29T07:11:24.407Z,76848.97
2022-08-29T07:13:51.176Z,76815.19
2022-08-29T07:16:18.968Z,76805.25
2022-08-29T07:18:46.710Z,76797.31
2022-08-29T07:21:20.313Z,76797.31
2022-08-29T07:23:47.880Z,76795.31
2022-08-29T07:26:20.706Z,76789.34
2022-08-29T07:28:52.710Z,76767.50
2022-08-29T07:31:19.694Z,76751.59
2022-08-29T07:33:46.535Z,76747.63
2022-08-29T07:36:13.123Z,76763.53
2022-08-29T07:38:39.880Z,76771.47
2022-08-29T07:41:09.869Z,76775.44
2022-08-29T07:43:37.233Z,76767.50
2022-08-29T07:46:16.189Z,76743.66
2022-08-29T07:48:43.848Z,76751.59
2022-08-29T07:51:16.892Z,76749.59
2022-08-29T07:53:44.110Z,76739.66
2022-08-29T07:56:17.747Z,76755.56
2022-08-29T07:58:44.865Z,76741.66
2022-08-29T08:01:20.834Z,76725.75
2022-08-29T08:03:47.956Z,76727.75
2022-08-29T08:06:14.592Z,76731.72
2022-08-29T08:08:41.358Z,76733.72
2022-08-29T08:11:09.267Z,76735.69
2022-08-29T08:13:37.101Z,76725.75
2022-08-29T08:16:09.746Z,76703.91
2022-08-29T08:18:38.079Z,76749.59
2022-08-29T08:21:05.074Z,76719.81
2022-08-29T08:23:31.773Z,76705.88
2022-08-29T08:25:58.597Z,76670.13
2022-08-29T08:28:25.533Z,76676.06
2022-08-29T08:30:52.213Z,76650.25
2022-08-29T08:33:18.780Z,76626.41
2022-08-29T08:35:46.849Z,76628.38
2022-08-29T08:38:14.116Z,76624.41
2022-08-29T08:40:57.076Z,76642.28
2022-08-29T08:43:33.529Z,76594.59
2022-08-29T08:46:00.784Z,76622.44
2022-08-29T08:48:35.790Z,76622.44
2022-08-29T08:51:09.955Z,76638.31
2022-08-29T08:53:40.042Z,76598.56
2022-08-29T08:56:20.018Z,76602.56
2022-08-29T08:58:57.909Z,76590.63
2022-08-29T09:01:30.211Z,76550.88
2022-08-29T09:04:04.163Z,76554.84
2022-08-29T09:06:45.840Z,76536.97
2022-08-29T09:09:29.242Z,76513.13
2022-08-29T09:12:20.985Z,76501.22
2022-08-29T09:15:04.323Z,76554.84
2022-08-29T09:17:55.687Z,76511.16
2022-08-29T09:20:28.656Z,76449.53
2022-08-29T09:23:02.430Z,76417.75
2022-08-29T09:25:30.324Z,76409.81
2022-08-29T09:27:58.451Z,76467.44
2022-08-29T09:30:29.163Z,76447.56
2022-08-29T09:33:02.070Z,76463.44
2022-08-29T09:35:50.568Z,76489.28
2022-08-29T09:38:20.236Z,76507.16
2022-08-29T09:41:02.932Z,76527.03
2022-08-29T09:43:38.807Z,76495.25
2022-08-29T09:46:11.798Z,76495.25
2022-08-29T09:48:41.576Z,76501.22
2022-08-29T09:51:30.089Z,76521.09
2022-08-29T09:54:27.515Z,76531.00
2022-08-29T09:57:11.432Z,76513.13
2022-08-29T09:59:45.510Z,76531.00
2022-08-29T10:02:26.986Z,76503.19
2022-08-29T10:04:55.040Z,76467.44
2022-08-29T10:07:30.993Z,76449.53
2022-08-29T10:10:20.185Z,76471.41
2022-08-29T10:13:05.032Z,76471.41
2022-08-29T10:15:49.900Z,76413.78
2022-08-29T10:18:28.763Z,76455.50
2022-08-29T10:20:58.019Z,76471.41
2022-08-29T10:23:27.573Z,76467.44
2022-08-29T10:25:54.857Z,76423.72
2022-08-29T10:28:49.267Z,76393.91
2022-08-29T10:31:26.051Z,76445.56
2022-08-29T10:34:13.436Z,76463.44
2022-08-29T10:36:43.485Z,76493.25
2022-08-29T10:39:25.661Z,76501.22
2022-08-29T10:42:03.299Z,76507.16
2022-08-29T10:44:56.180Z,76523.06
2022-08-29T10:47:51.427Z,76527.03
2022-08-29T10:50:44.011Z,76538.97
2022-08-29T10:53:23.699Z,76538.97
2022-08-29T10:56:10.963Z,76538.97
2022-08-29T10:58:53.580Z,76527.03
2022-08-29T11:01:26.095Z,76521.09
2022-08-29T11:04:18.939Z,76558.84
2022-08-29T11:06:57.646Z,76546.91
2022-08-29T11:09:40.859Z,76544.94
2022-08-29T11:12:23.983Z,76560.81
2022-08-29T11:15:00.579Z,76598.56
2022-08-29T11:17:34.466Z,76578.72
2022-08-29T11:20:13.747Z,76584.66
2022-08-29T11:22:52.255Z,76560.81
2022-08-29T11:25:20.934Z,76540.94
2022-08-29T11:28:12.193Z,76511.16
2022-08-29T11:30:50.986Z,76467.44
2022-08-29T11:33:35.902Z,76411.78
2022-08-29T11:36:26.104Z,76366.09
2022-08-29T11:39:10.892Z,76306.47
2022-08-29T11:41:43.470Z,76292.56
2022-08-29T11:44:28.242Z,76296.53
2022-08-29T11:46:56.884Z,76236.94
2022-08-29T11:49:26.772Z,76288.59
2022-08-29T11:51:56.658Z,76270.72
2022-08-29T11:54:28.991Z,76260.78
2022-08-29T11:56:58.532Z,76286.59
2022-08-29T11:59:44.391Z,76300.50
2022-08-29T12:02:30.801Z,76324.34
2022-08-29T12:04:57.738Z,76292.56
2022-08-29T12:07:34.094Z,76258.78
2022-08-29T12:10:03.690Z,76256.78
2022-08-29T12:12:41.444Z,76240.91
2022-08-29T12:15:50.842Z,76213.09
2022-08-29T12:18:20.194Z,76230.97
2022-08-29T12:20:52.481Z,76230.97
2022-08-29T12:23:23.646Z,76177.31
2022-08-29T12:26:22.584Z,76173.34
2022-08-29T12:28:58.647Z,76213.09
2022-08-29T12:32:22.279Z,76185.25
2022-08-29T12:35:05.562Z,76211.09
2022-08-29T12:37:32.346Z,76276.66
2022-08-29T12:40:15.097Z,76264.75
2022-08-29T12:42:59.833Z,76238.91
2022-08-29T12:45:30.289Z,76238.91
2022-08-29T12:48:31.668Z,76230.97
2022-08-29T12:50:58.257Z,76244.88
2022-08-29T12:53:35.745Z,76232.94
2022-08-29T12:56:16.481Z,76223.03
2022-08-29T12:58:53.313Z,76217.06
2022-08-29T13:01:25.411Z,76211.09
2022-08-29T13:04:09.698Z,76209.09
2022-08-29T13:06:37.079Z,76179.31
2022-08-29T13:09:06.072Z,76161.44
2022-08-29T13:11:33.524Z,76135.59
2022-08-29T13:14:10.896Z,76143.53
2022-08-29T13:16:39.240Z,76119.69
2022-08-29T13:19:18.535Z,76099.81
2022-08-29T13:21:45.085Z,76081.94
2022-08-29T13:24:16.495Z,76085.91
2022-08-29T13:27:10.280Z,76121.69
2022-08-29T13:29:40.183Z,76133.59
2022-08-29T13:32:23.819Z,76087.91
2022-08-29T13:35:19.463Z,76107.78
2022-08-29T13:38:07.272Z,76097.84
2022-08-29T13:40:46.983Z,76135.59
2022-08-29T13:43:44.098Z,76115.72
2022-08-29T13:46:15.131Z,76125.66
2022-08-29T13:48:42.453Z,76155.47
2022-08-29T13:51:08.955Z,76161.44
2022-08-29T13:53:35.562Z,76161.44
2022-08-29T13:56:02.802Z,76161.44
2022-08-29T13:58:31.247Z,76141.56
2022-08-29T14:00:58.458Z,76115.72
2022-08-29T14:03:28.824Z,76113.75
2022-08-29T14:05:56.778Z,76119.69
2022-08-29T14:08:24.939Z,76107.78
2022-08-29T14:10:52.298Z,76119.69
2022-08-29T14:13:19.277Z,76097.84
2022-08-29T14:15:49.099Z,76081.94
2022-08-29T14:18:16.407Z,76070.03
2022-08-29T14:20:43.054Z,76074.00
2022-08-29T14:23:09.655Z,76056.13
2022-08-29T14:25:36.479Z,76036.25
2022-08-29T14:28:03.698Z,76042.22
2022-08-29T14:30:30.433Z,76048.16
2022-08-29T14:32:57.016Z,76058.09
2022-08-29T14:35:25.916Z,76044.19
2022-08-29T14:37:53.855Z,76068.03
2022-08-29T14:40:21.736Z,76060.09
2022-08-29T14:42:48.870Z,76040.22
2022-08-29T14:45:15.541Z,76004.47
2022-08-29T14:47:43.497Z,75978.63
2022-08-29T14:50:12.768Z,76024.31
2022-08-29T14:52:39.696Z,76032.28
2022-08-29T14:55:07.439Z,76074.00
2022-08-29T14:57:36.027Z,76052.16
2022-08-29T15:00:09.314Z,76074.00
2022-08-29T15:02:35.907Z,76070.03
2022-08-29T15:05:02.513Z,75968.69
2022-08-29T15:07:29.079Z,75867.38
2022-08-29T15:09:55.619Z,75821.69
2022-08-29T15:12:22.708Z,75783.94
2022-08-29T15:14:49.339Z,75589.22
2022-08-29T15:17:15.863Z,75517.72
2022-08-29T15:22:29.755Z,75640.88
2022-08-29T15:24:56.327Z,75740.22
2022-08-29T15:27:27.390Z,75519.69
2022-08-29T15:29:54.254Z,75209.81
2022-08-29T15:32:20.832Z,74973.44
2022-08-29T15:34:47.424Z,74967.47
2022-08-29T15:37:14.579Z,74858.25
2022-08-29T15:39:41.510Z,74963.50
2022-08-29T15:42:11.227Z,75148.22
2022-08-29T15:44:40.934Z,75064.81
2022-08-29T15:47:10.549Z,75046.94
2022-08-29T15:49:39.586Z,75112.47
2022-08-29T15:52:06.248Z,75305.16
2022-08-29T15:54:32.916Z,75362.75
2022-08-29T15:56:59.475Z,75424.34
2022-08-29T15:59:47.207Z,75368.72
2022-08-29T16:02:13.999Z,75342.91
2022-08-29T16:04:44.776Z,75352.84
2022-08-29T16:07:18.189Z,75533.59
2022-08-29T16:09:45.383Z,75742.19
2022-08-29T16:12:12.426Z,75875.31
2022-08-29T16:14:58.422Z,75917.03
2022-08-29T16:17:29.851Z,75952.81
2022-08-29T16:19:57.189Z,75970.69
2022-08-29T16:22:24.259Z,76002.47
2022-08-29T16:24:50.955Z,76002.47
2022-08-29T16:27:22.030Z,76026.31
2022-08-29T16:29:53.178Z,76058.09
2022-08-29T16:32:20.236Z,76074.00
2022-08-29T16:34:46.811Z,76099.81
2022-08-29T16:37:13.340Z,76129.63
2022-08-29T16:39:42.016Z,76121.69
2022-08-29T16:42:09.457Z,76129.63
2022-08-29T16:44:36.081Z,76127.66
2022-08-29T16:47:02.773Z,76147.50
2022-08-29T16:49:29.467Z,76163.41
2022-08-29T16:51:57.415Z,76169.38
2022-08-29T16:54:24.281Z,76187.25
2022-08-29T16:56:50.868Z,76209.09
2022-08-29T16:59:18.527Z,76209.09
2022-08-29T17:01:48.536Z,76215.06
2022-08-29T17:04:24.568Z,76219.03
2022-08-29T17:06:51.979Z,76207.13
2022-08-29T17:09:20.752Z,76236.94
2022-08-29T17:11:47.745Z,76242.88
2022-08-29T17:14:16.063Z,76260.78
2022-08-29T17:16:45.586Z,76264.75
2022-08-29T17:19:13.431Z,76282.63
2022-08-29T17:21:39.944Z,76300.50
2022-08-29T17:24:07.450Z,76310.44
2022-08-29T17:26:40.970Z,76316.41
2022-08-29T17:29:11.236Z,76302.50
2022-08-29T17:34:20.753Z,76324.34
2022-08-29T17:36:49.360Z,76336.28
2022-08-29T17:39:15.946Z,76336.28
2022-08-29T17:41:43.410Z,76350.19
2022-08-29T17:44:13.042Z,76362.09
2022-08-29T17:46:39.582Z,76380.00
2022-08-29T17:49:08.296Z,76385.97
2022-08-29T17:51:53.694Z,76391.91
2022-08-29T17:54:21.815Z,76409.81
2022-08-29T17:56:57.453Z,76419.72
2022-08-29T17:59:27.893Z,76423.72
2022-08-29T18:01:55.421Z,76441.59
2022-08-29T18:04:22.484Z,76447.56
2022-08-29T18:06:49.395Z,76467.44
2022-08-29T18:09:17.030Z,76475.38
2022-08-29T18:11:47.051Z,76495.25
2022-08-29T18:14:13.743Z,76507.16
2022-08-29T18:16:40.684Z,76515.13
2022-08-29T18:19:07.809Z,76531.00
2022-08-29T18:21:35.718Z,76544.94
2022-08-29T18:24:13.952Z,76558.84
2022-08-29T18:26:42.801Z,76568.78
2022-08-29T18:29:10.317Z,76586.66
2022-08-29T18:31:47.215Z,76592.63
2022-08-29T18:34:14.438Z,76598.56
2022-08-29T18:36:43.122Z,76606.53
2022-08-29T18:39:11.741Z,76616.47
2022-08-29T18:41:38.926Z,76622.44
2022-08-29T18:44:05.600Z,76628.38
2022-08-29T18:46:33.365Z,76638.31
2022-08-29T18:49:00.032Z,76642.28
2022-08-29T18:51:32.476Z,76654.22
2022-08-29T18:53:59.165Z,76650.25
2022-08-29T18:56:46.845Z,76666.16
2022-08-29T18:59:17.388Z,76680.06
2022-08-29T19:01:46.068Z,76690.00
2022-08-29T19:04:32.447Z,76690.00
2022-08-29T19:06:59.054Z,76693.97
2022-08-29T19:09:25.611Z,76701.91
2022-08-29T19:11:52.148Z,76715.81
2022-08-29T19:14:18.664Z,76723.78
2022-08-29T19:16:45.679Z,76735.69
2022-08-29T19:19:13.450Z,76733.72
2022-08-29T19:21:41.145Z,76743.66
2022-08-29T19:24:08.050Z,76755.56
2022-08-29T19:26:38.524Z,76765.50
2022-08-29T19:29:12.528Z,76775.44
2022-08-29T19:31:46.383Z,76789.34
2022-08-29T19:34:19.099Z,76797.31
2022-08-29T19:36:47.381Z,76807.25
2022-08-29T19:39:14.641Z,76811.22
2022-08-29T19:41:43.299Z,76815.19
2022-08-29T19:44:09.872Z,76819.16
2022-08-29T19:46:44.963Z,76833.06
2022-08-29T19:49:15.768Z,76837.06
2022-08-29T19:51:43.514Z,76837.06
2022-08-29T19:54:11.046Z,76839.03
2022-08-29T19:56:39.464Z,76841.03
2022-08-29T19:59:17.315Z,76833.06
2022-08-29T20:01:51.466Z,76843.00
2022-08-29T20:04:18.098Z,76841.03
2022-08-29T20:06:46.260Z,76850.97
2022-08-29T20:09:14.869Z,76858.91
2022-08-29T20:11:42.894Z,76860.91
2022-08-29T20:14:11.171Z,76870.84
2022-08-29T20:16:44.722Z,76874.81
2022-08-29T20:19:12.603Z,76866.84
2022-08-29T20:21:40.673Z,76870.84
2022-08-29T20:24:09.583Z,76868.84
2022-08-29T20:26:42.851Z,76878.78
2022-08-29T20:29:23.014Z,76892.69
2022-08-29T20:32:07.226Z,76894.69
2022-08-29T20:34:34.727Z,76888.72
2022-08-29T20:37:14.073Z,76902.63
2022-08-29T20:39:47.151Z,76914.56
2022-08-29T20:42:21.978Z,76916.53
2022-08-29T20:44:48.729Z,76924.50
2022-08-29T20:47:18.647Z,76936.41
2022-08-29T20:49:49.465Z,76938.41
2022-08-29T20:52:20.121Z,76940.41
2022-08-29T20:54:49.487Z,76938.41
2022-08-29T20:57:16.353Z,76932.44
2022-08-29T20:59:44.158Z,76950.31
2022-08-29T21:02:13.994Z,76956.28
2022-08-29T21:05:05.065Z,76968.22
2022-08-29T21:07:31.891Z,76966.22
2022-08-29T21:09:58.601Z,76984.13
2022-08-29T21:12:27.626Z,76984.13
2022-08-29T21:14:55.343Z,76972.19
2022-08-29T21:17:21.864Z,76984.13
2022-08-29T21:19:48.363Z,76966.22
2022-08-29T21:22:15.850Z,76982.13
2022-08-29T21:24:43.012Z,76980.13
2022-08-29T21:27:10.584Z,76976.16
2022-08-29T21:29:38.455Z,76982.13
2022-08-29T21:32:05.359Z,76982.13
2022-08-29T21:34:32.991Z,76982.13
2022-08-29T21:36:59.566Z,76988.09
2022-08-29T21:39:28.585Z,76996.03
2022-08-29T21:41:56.759Z,77005.97
2022-08-29T21:44:23.380Z,77009.94
2022-08-29T21:46:50.005Z,77015.91
2022-08-29T21:49:21.544Z,77009.94
2022-08-29T21:51:49.405Z,77021.88
2022-08-29T21:54:17.917Z,77031.81
2022-08-29T21:56:45.583Z,77027.84
2022-08-29T21:59:13.775Z,77021.88
2022-08-29T22:01:41.599Z,77013.94
2022-08-29T22:04:11.502Z,77039.75
2022-08-29T22:06:47.133Z,77041.75
2022-08-29T22:09:19.323Z,77047.72
2022-08-29T22:11:48.618Z,77057.66
2022-08-29T22:14:15.203Z,77061.63
2022-08-29T22:16:41.831Z,77051.69
2022-08-29T22:19:15.603Z,77067.59
2022-08-29T22:21:47.784Z,77067.59
2022-08-29T22:24:15.872Z,77069.56
2022-08-29T22:26:42.993Z,77079.50
2022-08-29T22:29:16.147Z,77079.50
2022-08-29T22:31:44.382Z,77095.41
2022-08-29T22:34:15.908Z,77099.38
2022-08-29T22:36:43.316Z,77105.34
2022-08-29T22:39:10.491Z,77087.47
2022-08-29T22:41:37.479Z,77085.47
2022-08-29T22:46:52.918Z,77073.56
2022-08-29T22:49:19.672Z,77071.56
2022-08-29T22:51:46.622Z,77075.53
2022-08-29T22:54:31.940Z,77071.56
2022-08-29T22:56:59.692Z,77077.53
2022-08-29T22:59:26.361Z,77087.47
2022-08-29T23:01:53.667Z,77085.47
2022-08-29T23:04:20.727Z,77079.50
2022-08-29T23:06:47.261Z,77081.50
2022-08-29T23:09:13.839Z,77079.50
2022-08-29T23:11:40.753Z,77089.44
2022-08-29T23:14:08.072Z,77085.47
2022-08-29T23:16:39.354Z,77083.50
2022-08-29T23:19:06.111Z,77087.47
2022-08-29T23:21:33.500Z,77081.50
2022-08-29T23:24:00.228Z,77083.50
2022-08-29T23:26:28.342Z,77083.50
2022-08-29T23:28:54.904Z,77099.38
2022-08-29T23:31:23.010Z,77107.34
2022-08-29T23:33:50.494Z,77105.34
2022-08-29T23:36:17.533Z,77111.31
2022-08-29T23:38:44.276Z,77123.25
2022-08-29T23:41:13.595Z,77129.19
2022-08-29T23:43:40.493Z,77133.19
2022-08-29T23:46:07.781Z,77127.22
2022-08-29T23:48:34.885Z,77123.25
2022-08-29T23:51:07.233Z,77131.19
2022-08-29T23:53:34.999Z,77131.19
2022-08-29T23:56:07.378Z,77141.13
2022-08-29T23:58:33.988Z,77141.13
